createdAt,value
2019-04-29T09:35:07.781Z,10.65
2019-04-29T09:40:59.482Z,9.27
2019-04-29T09:46:36.509Z,7.87
2019-04-29T09:52:11.157Z,6.77
2019-04-29T09:57:44.884Z,6.73
2019-04-29T10:03:13.854Z,6.97
2019-04-29T10:08:22.471Z,6.80
2019-04-29T10:13:36.399Z,8.10
2019-04-29T10:18:54.537Z,6.77
2019-04-29T10:24:05.884Z,7.22
2019-04-29T10:29:20.741Z,6.95
2019-04-29T10:34:34.593Z,6.87
2019-04-29T10:40:10.972Z,7.03
2019-04-29T10:45:29.806Z,6.70
2019-04-29T10:50:47.196Z,7.17
2019-04-29T10:56:41.061Z,6.27
2019-04-29T11:02:38.415Z,6.22
2019-04-29T11:07:50.894Z,6.20
2019-04-29T11:13:22.180Z,6.95
2019-04-29T11:18:41.358Z,6.65
2019-04-29T11:24:19.557Z,5.97
2019-04-29T11:29:44.007Z,6.78
2019-04-29T11:35:05.879Z,6.75
2019-04-29T11:40:35.165Z,7.30
2019-04-29T11:45:41.367Z,7.40
2019-04-29T11:51:15.045Z,8.25
2019-04-29T11:56:35.422Z,7.10
2019-04-29T12:02:12.369Z,6.30
2019-04-29T12:07:34.095Z,7.33
2019-04-29T12:13:11.548Z,6.15
2019-04-29T12:18:56.164Z,5.53
2019-04-29T12:24:11.731Z,7.50
2019-04-29T12:29:26.956Z,6.03
2019-04-29T12:34:46.653Z,6.53
2019-04-29T12:40:17.548Z,6.35
2019-04-29T12:45:37.347Z,6.83
2019-04-29T12:50:57.363Z,6.20
2019-04-29T12:56:12.730Z,5.65
2019-04-29T13:01:54.172Z,6.00
2019-04-29T13:07:13.540Z,5.22
2019-04-29T13:12:25.055Z,5.53
2019-04-29T13:17:46.398Z,5.40
2019-04-29T13:23:17.004Z,5.25
2019-04-29T13:28:29.544Z,4.85
2019-04-29T13:33:32.522Z,5.00
2019-04-29T13:38:45.794Z,6.90
2019-04-29T13:44:05.308Z,4.80
2019-04-29T13:49:31.502Z,4.70
2019-04-29T13:54:47.725Z,5.87
2019-04-29T14:00:36.543Z,3.97
2019-04-29T14:06:04.284Z,4.27
2019-04-29T14:11:13.968Z,3.65
2019-04-29T14:16:37.063Z,3.20
2019-04-29T14:21:49.367Z,4.42
2019-04-29T14:27:04.526Z,3.62
2019-04-29T14:32:33.056Z,3.20
2019-04-29T14:38:04.557Z,4.45
2019-04-29T14:43:29.092Z,4.92
2019-04-29T14:48:50.962Z,3.50
2019-04-29T14:54:05.597Z,7.10
2019-04-29T14:59:39.313Z,3.60
2019-04-29T15:04:54.156Z,4.12
2019-04-29T15:10:06.344Z,4.35
2019-04-29T15:15:37.128Z,3.37
2019-04-29T15:20:57.204Z,3.20
2019-04-29T15:26:13.159Z,3.40
2019-04-29T15:31:27.717Z,6.23
2019-04-29T15:36:42.017Z,3.93
2019-04-29T15:42:01.912Z,3.90
2019-04-29T15:53:08.713Z,3.57
2019-04-29T15:58:27.485Z,6.10
2019-04-29T16:03:54.718Z,4.77
2019-04-29T16:09:11.813Z,5.90
2019-04-29T16:14:28.828Z,7.43
2019-04-29T16:19:46.149Z,7.23
2019-04-29T16:25:11.093Z,5.87
2019-04-29T16:30:26.068Z,6.90
2019-04-29T16:35:35.034Z,7.27
2019-04-29T16:40:57.115Z,7.27
2019-04-29T16:46:24.286Z,7.23
2019-04-29T16:51:35.845Z,7.17
2019-04-29T16:56:52.383Z,7.27
2019-04-29T17:02:03.804Z,7.80
2019-04-29T17:07:20.223Z,9.17
2019-04-29T17:12:36.104Z,11.10
2019-04-29T17:17:54.127Z,10.67
2019-04-29T17:23:24.747Z,11.43
2019-04-29T17:28:49.236Z,11.93
2019-04-29T17:34:03.911Z,11.80
2019-04-29T17:39:16.633Z,12.93
2019-04-29T17:44:50.584Z,14.30
2019-04-29T17:50:29.665Z,13.43
2019-04-29T17:55:45.348Z,12.23
2019-04-29T18:01:17.844Z,11.67
2019-04-29T18:06:46.546Z,12.10
2019-04-29T18:12:02.200Z,12.67
2019-04-29T18:17:23.693Z,11.40
2019-04-29T18:22:44.742Z,10.97
2019-04-29T18:28:05.527Z,10.83
2019-04-29T18:33:30.157Z,9.87
2019-04-29T18:38:42.560Z,9.93
2019-04-29T18:44:03.023Z,10.50
2019-04-29T18:49:13.393Z,9.30
2019-04-29T18:54:27.289Z,8.53
2019-04-29T18:59:37.229Z,8.23
2019-04-29T19:05:04.127Z,8.40
2019-04-29T19:10:32.007Z,8.50
2019-04-29T19:15:40.059Z,8.40
2019-04-29T19:20:57.013Z,8.70
2019-04-29T19:26:10.971Z,8.73
2019-04-29T19:31:30.702Z,8.03
2019-04-29T19:36:42.465Z,9.07
2019-04-29T19:42:15.518Z,9.93
2019-04-29T19:47:28.081Z,10.83
2019-04-29T19:52:45.433Z,9.90
2019-04-29T19:58:07.571Z,10.17
2019-04-29T20:03:49.864Z,9.37
2019-04-29T20:09:03.511Z,9.23
2019-04-29T20:14:33.519Z,8.47
2019-04-29T20:19:58.708Z,9.10
2019-04-29T20:25:06.297Z,8.67
2019-04-29T20:30:38.051Z,8.37
2019-04-29T20:35:56.278Z,9.40
2019-04-29T20:41:13.051Z,10.37
2019-04-29T20:46:34.138Z,11.37
2019-04-29T20:51:48.921Z,14.23
2019-04-29T20:57:04.748Z,25.87
2019-04-29T21:02:13.006Z,26.70
2019-04-29T21:07:49.207Z,26.20
2019-04-29T21:13:21.294Z,15.07
2019-04-29T21:19:10.151Z,9.73
2019-04-29T21:24:26.957Z,10.50
2019-04-29T21:29:43.007Z,12.37
2019-04-29T21:35:18.540Z,11.37
2019-04-29T21:40:38.746Z,12.60
2019-04-29T21:45:55.950Z,11.00
2019-04-29T21:51:12.500Z,11.33
2019-04-29T21:56:27.882Z,9.80
2019-04-29T22:01:46.344Z,9.37
2019-04-29T22:07:04.787Z,9.10
2019-04-29T22:12:20.585Z,9.40
2019-04-29T22:17:58.980Z,9.80
2019-04-29T22:23:13.242Z,9.50
2019-04-29T22:28:32.334Z,10.07
2019-04-29T22:34:09.979Z,10.73
2019-04-29T22:39:21.687Z,10.80
2019-04-29T22:44:30.531Z,10.37
2019-04-29T22:49:42.181Z,10.93
2019-04-29T22:54:57.863Z,10.30
2019-04-29T23:00:15.166Z,11.47
2019-04-29T23:05:46.177Z,12.17
2019-04-29T23:11:08.423Z,12.07
2019-04-29T23:16:24.538Z,9.60
2019-04-29T23:21:53.380Z,10.77
2019-04-29T23:27:11.680Z,11.23
2019-04-29T23:32:22.799Z,10.50
2019-04-29T23:37:32.632Z,11.20
2019-04-29T23:42:49.246Z,11.43
2019-04-29T23:48:39.943Z,10.60
2019-04-29T23:53:51.682Z,11.67
2019-04-29T23:59:16.826Z,12.33
